Time;durP1;ratioP1;P1;durP2;ratioP2;P2;SDS_P1;SDS_P2;PMS_P1;PMS_P2;Temp;Humidity;BMP_temperature;BMP_pressure;BME280_temperature;BME280_humidity;BME280_pressure;Samples;Min_cycle;Max_cycle;Signal;HPM_P1;HPM_P2
2022/07/06 00:02:11;;;;;;;4.05;1.70;;;;;;;;;;6204764;28;20229;-77
2022/07/06 00:05:31;;;;;;;4.68;1.38;;;;;;;;;;6203670;28;20233;-78
2022/07/06 00:08:53;;;;;;;5.68;2.22;;;;;;;;;;6201676;28;20252;-77
2022/07/06 00:12:14;;;;;;;6.17;1.80;;;;;;;;;;6200572;28;20367;-78
2022/07/06 00:15:35;;;;;;;3.53;1.27;;;;;;;;;;6201764;28;20336;-78
2022/07/06 00:18:56;;;;;;;4.15;1.70;;;;;;;;;;6194676;28;20226;-77
2022/07/06 00:22:16;;;;;;;2.93;1.47;;;;;;;;;;6195775;28;20221;-77
2022/07/06 00:25:38;;;;;;;3.13;1.40;;;;;;;;;;6203548;28;20714;-77
2022/07/06 00:28:59;;;;;;;5.53;1.98;;;;;;;;;;6201048;28;20682;-77
2022/07/06 00:32:19;;;;;;;3.45;1.42;;;;;;;;;;6199538;28;20240;-77
2022/07/06 00:35:40;;;;;;;5.03;1.63;;;;;;;;;;6203516;28;20630;-78
2022/07/06 00:39:01;;;;;;;3.05;1.58;;;;;;;;;;6197345;28;20225;-78
2022/07/06 00:42:24;;;;;;;3.20;1.30;;;;;;;;;;6199190;28;20233;-79
2022/07/06 00:45:45;;;;;;;3.33;1.50;;;;;;;;;;6200524;28;20237;-77
2022/07/06 00:50:13;;;;;;;5.60;1.67;;;;;;;;;;6198807;28;20248;-79
2022/07/06 00:52:48;;;;;;;4.57;1.60;;;;;;;;;;6203385;28;20335;-79
2022/07/06 00:56:10;;;;;;;3.67;1.63;;;;;;;;;;6203170;28;20840;-79
2022/07/06 00:59:32;;;;;;;3.07;1.67;;;;;;;;;;6198509;28;20277;-78
2022/07/06 01:02:53;;;;;;;3.97;1.50;;;;;;;;;;6195282;28;20229;-76
2022/07/06 01:06:14;;;;;;;4.63;2.07;;;;;;;;;;6200423;28;21465;-78
2022/07/06 01:09:35;;;;;;;2.00;1.83;;;;;;;;;;6200825;28;20237;-77
2022/07/06 01:12:57;;;;;;;3.43;1.30;;;;;;;;;;6203041;28;20233;-76
2022/07/06 01:16:19;;;;;;;1.50;0.90;;;;;;;;;;6212145;28;20221;-76
2022/07/06 01:19:40;;;;;;;3.50;1.13;;;;;;;;;;6201542;28;20240;-78
2022/07/06 01:23:02;;;;;;;2.37;1.53;;;;;;;;;;6216645;28;20474;-78
2022/07/06 01:26:22;;;;;;;4.70;1.63;;;;;;;;;;6194563;28;20248;-77
2022/07/06 01:29:43;;;;;;;2.70;1.50;;;;;;;;;;6199707;28;20233;-78
2022/07/06 01:33:04;;;;;;;3.07;1.00;;;;;;;;;;6198741;28;20237;-78
2022/07/06 01:36:24;;;;;;;2.43;1.53;;;;;;;;;;6195432;28;20236;-78
2022/07/06 01:39:46;;;;;;;2.40;1.13;;;;;;;;;;6201387;28;20824;-79
2022/07/06 01:43:07;;;;;;;4.27;1.70;;;;;;;;;;6194643;28;20256;-78
2022/07/06 01:46:28;;;;;;;4.25;1.27;;;;;;;;;;6199483;28;20684;-78
2022/07/06 01:49:48;;;;;;;1.90;1.60;;;;;;;;;;6167294;28;20327;-77
2022/07/06 01:53:10;;;;;;;3.40;1.95;;;;;;;;;;6212871;28;20237;-77
2022/07/06 01:56:32;;;;;;;2.63;1.48;;;;;;;;;;6197425;28;20225;-78
2022/07/06 01:59:56;;;;;;;5.27;1.40;;;;;;;;;;6196877;28;20233;-80
2022/07/06 02:03:17;;;;;;;3.00;1.55;;;;;;;;;;6211577;28;20256;-77
2022/07/06 02:06:38;;;;;;;5.03;1.83;;;;;;;;;;6201667;28;20844;-79
2022/07/06 02:09:58;;;;;;;4.40;1.50;;;;;;;;;;6197094;28;20423;-78
2022/07/06 02:13:20;;;;;;;6.73;2.60;;;;;;;;;;6198214;28;20312;-77
2022/07/06 02:16:41;;;;;;;2.93;1.63;;;;;;;;;;6196293;28;20230;-79
2022/07/06 02:20:01;;;;;;;3.27;1.50;;;;;;;;;;6198173;28;20236;-78
2022/07/06 02:23:22;;;;;;;3.87;1.83;;;;;;;;;;6196969;28;20265;-79
2022/07/06 02:26:46;;;;;;;3.00;1.30;;;;;;;;;;6198982;28;20225;-79
2022/07/06 02:30:09;;;;;;;2.50;1.43;;;;;;;;;;6197141;28;20229;-79
2022/07/06 02:33:30;;;;;;;3.70;1.60;;;;;;;;;;6214052;28;20618;-78
2022/07/06 02:36:51;;;;;;;3.17;1.43;;;;;;;;;;6202846;28;20303;-78
2022/07/06 02:40:13;;;;;;;4.97;1.67;;;;;;;;;;6205025;28;20229;-79
2022/07/06 02:43:33;;;;;;;2.37;1.53;;;;;;;;;;6202586;28;20277;-78
2022/07/06 02:46:55;;;;;;;5.80;1.53;;;;;;;;;;6200560;28;20487;-79
2022/07/06 02:50:17;;;;;;;4.33;1.50;;;;;;;;;;6199516;28;20229;-79
2022/07/06 02:53:38;;;;;;;4.63;2.07;;;;;;;;;;6206723;28;20236;-77
2022/07/06 02:56:59;;;;;;;4.27;1.73;;;;;;;;;;6202823;28;20229;-78
2022/07/06 03:00:20;;;;;;;4.97;1.90;;;;;;;;;;6198393;28;20997;-77
2022/07/06 03:03:42;;;;;;;5.03;1.43;;;;;;;;;;6211674;28;20250;-77
2022/07/06 03:07:03;;;;;;;2.57;1.20;;;;;;;;;;6203615;28;20627;-77
2022/07/06 03:10:25;;;;;;;3.47;1.43;;;;;;;;;;6202835;28;20225;-79
2022/07/06 03:13:46;;;;;;;4.27;1.50;;;;;;;;;;6200558;28;20221;-78
2022/07/06 03:17:07;;;;;;;3.90;1.50;;;;;;;;;;6185569;28;20245;-78
2022/07/06 03:20:29;;;;;;;3.53;1.10;;;;;;;;;;6201216;28;20324;-79
2022/07/06 03:23:50;;;;;;;3.47;1.57;;;;;;;;;;6202182;28;20225;-79
2022/07/06 03:27:11;;;;;;;3.80;1.60;;;;;;;;;;6202584;28;20246;-78
2022/07/06 03:30:31;;;;;;;6.40;2.30;;;;;;;;;;6201930;28;20315;-78
2022/07/06 03:33:53;;;;;;;7.40;2.23;;;;;;;;;;6201044;28;20232;-79
2022/07/06 03:37:15;;;;;;;4.33;2.10;;;;;;;;;;6218387;28;20347;-79
2022/07/06 03:40:37;;;;;;;6.23;3.13;;;;;;;;;;6213591;28;20635;-78
2022/07/06 03:43:57;;;;;;;10.37;4.17;;;;;;;;;;6199228;28;20333;-79
2022/07/06 03:47:19;;;;;;;4.67;3.07;;;;;;;;;;6213428;28;20618;-79
2022/07/06 03:50:40;;;;;;;5.73;3.07;;;;;;;;;;6199664;28;20237;-78
2022/07/06 03:54:02;;;;;;;10.60;2.70;;;;;;;;;;6199693;28;20230;-78
2022/07/06 03:57:25;;;;;;;6.10;2.57;;;;;;;;;;6201445;28;20516;-76
2022/07/06 04:00:46;;;;;;;4.37;2.20;;;;;;;;;;6201554;28;20619;-77
2022/07/06 04:04:11;;;;;;;6.23;2.53;;;;;;;;;;6198966;28;20229;-78
2022/07/06 04:07:36;;;;;;;3.57;2.07;;;;;;;;;;6202582;28;20320;-76
2022/07/06 04:10:58;;;;;;;6.80;2.33;;;;;;;;;;6197095;28;20234;-76
2022/07/06 04:14:19;;;;;;;3.33;2.23;;;;;;;;;;6212629;28;20598;-76
2022/07/06 04:17:55;;;;;;;4.87;2.50;;;;;;;;;;6202562;28;20229;-77
2022/07/06 04:21:27;;;;;;;3.03;1.23;;;;;;;;;;6201741;28;20556;-76
2022/07/06 04:24:48;;;;;;;3.07;2.13;;;;;;;;;;6199591;28;20229;-77
2022/07/06 04:28:11;;;;;;;4.07;1.57;;;;;;;;;;6200304;28;20237;-77
2022/07/06 04:31:32;;;;;;;2.37;1.50;;;;;;;;;;6198889;28;20776;-78
2022/07/06 04:34:53;;;;;;;3.67;1.70;;;;;;;;;;6195077;28;21785;-77
2022/07/06 04:38:15;;;;;;;2.30;1.07;;;;;;;;;;6211839;28;20226;-78
2022/07/06 04:41:37;;;;;;;5.40;1.77;;;;;;;;;;6195978;28;20229;-78
2022/07/06 04:44:59;;;;;;;2.50;1.13;;;;;;;;;;6197824;28;20226;-77
2022/07/06 04:48:20;;;;;;;2.43;1.43;;;;;;;;;;6212033;28;20256;-77
2022/07/06 04:51:41;;;;;;;3.20;1.70;;;;;;;;;;6200765;28;20319;-77
2022/07/06 04:55:04;;;;;;;4.20;1.40;;;;;;;;;;6198604;28;20241;-78
2022/07/06 04:58:24;;;;;;;3.73;1.57;;;;;;;;;;6199506;28;20642;-78
2022/07/06 05:01:47;;;;;;;4.30;1.53;;;;;;;;;;6212076;28;20221;-78
2022/07/06 05:05:09;;;;;;;5.18;1.90;;;;;;;;;;6193074;28;20232;-78
2022/07/06 05:08:31;;;;;;;3.83;1.80;;;;;;;;;;6200978;28;20285;-78
2022/07/06 05:11:52;;;;;;;2.43;1.70;;;;;;;;;;6209740;28;20237;-78
2022/07/06 05:15:13;;;;;;;6.23;1.40;;;;;;;;;;6198619;28;20240;-77
2022/07/06 05:18:35;;;;;;;2.23;1.60;;;;;;;;;;6197180;28;20232;-76
2022/07/06 05:21:57;;;;;;;4.17;1.67;;;;;;;;;;6193144;28;20328;-77
2022/07/06 05:25:18;;;;;;;5.07;1.67;;;;;;;;;;6201672;28;20277;-77
2022/07/06 05:28:39;;;;;;;8.13;1.57;;;;;;;;;;6201736;28;20606;-78
2022/07/06 05:32:04;;;;;;;5.30;1.60;;;;;;;;;;6202108;28;20230;-76
2022/07/06 05:35:26;;;;;;;4.83;1.80;;;;;;;;;;6202455;28;20233;-78
2022/07/06 05:38:50;;;;;;;2.63;2.30;;;;;;;;;;6202824;28;20233;-78
2022/07/06 05:42:11;;;;;;;5.27;1.67;;;;;;;;;;6217229;28;20516;-79
2022/07/06 05:45:32;;;;;;;2.40;1.27;;;;;;;;;;6214043;28;20714;-78
2022/07/06 05:52:33;;;;;;;5.37;1.70;;;;;;;;;;6197580;28;20624;-74
2022/07/06 05:55:54;;;;;;;3.87;2.30;;;;;;;;;;6199268;28;20236;-74
2022/07/06 05:59:16;;;;;;;3.63;1.60;;;;;;;;;;6223907;28;20228;-78
2022/07/06 06:02:38;;;;;;;6.67;2.47;;;;;;;;;;6206303;28;20233;-77
2022/07/06 06:05:59;;;;;;;4.43;2.03;;;;;;;;;;6203321;28;20230;-75
2022/07/06 06:09:22;;;;;;;5.07;1.67;;;;;;;;;;6210442;28;20225;-84
2022/07/06 06:12:44;;;;;;;3.93;1.47;;;;;;;;;;6209981;28;20573;-82
2022/07/06 06:16:05;;;;;;;2.77;1.67;;;;;;;;;;6206431;28;20240;-81
2022/07/06 06:19:26;;;;;;;6.10;1.93;;;;;;;;;;6208847;28;20599;-80
2022/07/06 06:22:48;;;;;;;4.07;1.73;;;;;;;;;;6201068;28;20316;-76
2022/07/06 06:26:09;;;;;;;3.73;1.60;;;;;;;;;;6206096;28;20530;-77
2022/07/06 06:29:30;;;;;;;5.83;1.53;;;;;;;;;;6203452;28;20225;-75
2022/07/06 06:32:51;;;;;;;6.23;1.57;;;;;;;;;;6204147;28;20225;-78
2022/07/06 06:36:12;;;;;;;2.83;1.13;;;;;;;;;;6203621;28;20229;-77
2022/07/06 06:39:33;;;;;;;2.63;1.43;;;;;;;;;;6203195;28;20225;-77
2022/07/06 06:42:54;;;;;;;4.30;1.53;;;;;;;;;;6201712;28;20240;-78
2022/07/06 06:46:16;;;;;;;2.17;0.93;;;;;;;;;;6202368;28;20230;-78
2022/07/06 06:49:37;;;;;;;3.33;1.17;;;;;;;;;;6202498;28;20229;-78
2022/07/06 06:52:58;;;;;;;3.97;3.00;;;;;;;;;;6199362;28;20344;-77
2022/07/06 06:56:19;;;;;;;2.87;1.13;;;;;;;;;;6197487;28;20229;-76
2022/07/06 06:59:41;;;;;;;4.03;1.13;;;;;;;;;;6199694;28;20241;-73
2022/07/06 07:03:02;;;;;;;4.50;1.53;;;;;;;;;;6202715;28;20241;-79
2022/07/06 07:06:23;;;;;;;2.97;1.20;;;;;;;;;;6207906;28;20225;-80
2022/07/06 07:09:43;;;;;;;1.85;1.15;;;;;;;;;;6207980;28;20240;-74
2022/07/06 07:13:04;;;;;;;4.97;1.50;;;;;;;;;;6207038;28;20610;-81
2022/07/06 07:16:26;;;;;;;2.27;1.17;;;;;;;;;;6199961;28;21116;-81
2022/07/06 07:19:56;;;;;;;2.33;1.00;;;;;;;;;;6197650;28;20543;-86
2022/07/06 07:23:17;;;;;;;6.43;1.30;;;;;;;;;;6205511;28;20221;-79
2022/07/06 07:26:40;;;;;;;5.88;1.58;;;;;;;;;;6208198;28;20378;-88
2022/07/06 07:30:00;;;;;;;4.07;1.42;;;;;;;;;;6207081;28;20237;-78
2022/07/06 07:33:22;;;;;;;6.53;2.08;;;;;;;;;;6205546;28;20237;-81
2022/07/06 07:36:43;;;;;;;3.50;1.45;;;;;;;;;;6206268;28;20241;-77
2022/07/06 07:40:05;;;;;;;4.40;0.82;;;;;;;;;;6205769;28;20225;-75
2022/07/06 07:43:26;;;;;;;2.22;0.90;;;;;;;;;;6206395;28;20225;-73
2022/07/06 07:46:47;;;;;;;2.08;1.02;;;;;;;;;;6202316;28;20728;-82
2022/07/06 07:50:10;;;;;;;1.47;0.80;;;;;;;;;;6206141;28;20311;-80
2022/07/06 07:53:31;;;;;;;3.10;1.57;;;;;;;;;;6204333;28;20225;-78
2022/07/06 07:56:51;;;;;;;3.33;1.13;;;;;;;;;;6202795;28;20237;-79
2022/07/06 08:00:12;;;;;;;2.57;1.20;;;;;;;;;;6207363;28;20233;-80
2022/07/06 08:03:33;;;;;;;1.57;0.70;;;;;;;;;;6204771;28;20320;-84
2022/07/06 08:06:55;;;;;;;0.70;0.70;;;;;;;;;;6206570;28;20591;-79
2022/07/06 08:10:16;;;;;;;0.97;0.60;;;;;;;;;;6200440;28;20415;-83
2022/07/06 08:13:37;;;;;;;4.88;1.15;;;;;;;;;;6199761;28;21418;-81
2022/07/06 08:16:57;;;;;;;4.57;1.08;;;;;;;;;;6202223;28;20249;-69
2022/07/06 08:20:18;;;;;;;1.77;0.70;;;;;;;;;;6196514;28;20708;-69
2022/07/06 08:23:39;;;;;;;2.85;1.05;;;;;;;;;;6200508;28;20590;-70
2022/07/06 08:27:00;;;;;;;3.58;0.95;;;;;;;;;;6201791;28;20317;-70
2022/07/06 08:30:21;;;;;;;1.70;0.70;;;;;;;;;;6195374;28;20229;-70
2022/07/06 08:33:41;;;;;;;4.28;1.30;;;;;;;;;;6192973;28;20245;-75
2022/07/06 08:37:02;;;;;;;4.40;1.08;;;;;;;;;;6194089;28;20237;-78
2022/07/06 08:40:24;;;;;;;7.55;1.40;;;;;;;;;;6204734;28;20237;-75
2022/07/06 08:43:44;;;;;;;1.33;0.80;;;;;;;;;;6196022;28;20241;-74
2022/07/06 08:47:05;;;;;;;3.13;1.08;;;;;;;;;;6194056;28;20245;-70
2022/07/06 08:50:26;;;;;;;1.75;0.82;;;;;;;;;;6218689;28;20229;-70
2022/07/06 08:53:48;;;;;;;2.13;1.02;;;;;;;;;;6198584;28;20274;-69
2022/07/06 08:57:10;;;;;;;1.00;0.70;;;;;;;;;;6200813;28;20530;-69
2022/07/06 09:00:33;;;;;;;4.63;1.65;;;;;;;;;;6192860;28;20278;-68
2022/07/06 09:03:55;;;;;;;5.72;1.33;;;;;;;;;;6205078;28;20221;-68
2022/07/06 09:07:15;;;;;;;3.22;1.20;;;;;;;;;;6187067;28;20230;-68
2022/07/06 09:10:37;;;;;;;2.67;1.33;;;;;;;;;;6190515;28;20602;-68
2022/07/06 09:13:59;;;;;;;1.83;1.30;;;;;;;;;;6191879;28;20328;-68
2022/07/06 09:17:19;;;;;;;1.00;0.90;;;;;;;;;;6196697;28;20400;-68
2022/07/06 09:20:41;;;;;;;2.05;1.10;;;;;;;;;;6187983;28;20571;-68
2022/07/06 09:24:02;;;;;;;2.22;1.25;;;;;;;;;;6195596;28;20233;-69
2022/07/06 09:27:22;;;;;;;1.42;1.10;;;;;;;;;;6195474;28;20316;-70
2022/07/06 09:30:45;;;;;;;1.92;1.20;;;;;;;;;;6190426;28;20319;-77
2022/07/06 09:34:06;;;;;;;1.38;1.00;;;;;;;;;;6193307;28;20252;-86
2022/07/06 09:37:30;;;;;;;2.13;1.00;;;;;;;;;;6203471;28;20241;-75
2022/07/06 09:40:51;;;;;;;3.35;1.45;;;;;;;;;;6204983;28;20229;-77
2022/07/06 09:44:11;;;;;;;1.42;1.30;;;;;;;;;;6204889;28;20240;-81
2022/07/06 09:47:33;;;;;;;1.10;0.77;;;;;;;;;;6208079;28;20561;-75
2022/07/06 09:50:55;;;;;;;2.75;1.38;;;;;;;;;;6206754;28;20237;-78
2022/07/06 09:54:16;;;;;;;2.30;1.02;;;;;;;;;;6207083;28;20238;-77
2022/07/06 09:57:36;;;;;;;2.03;1.10;;;;;;;;;;6201650;28;20229;-82
2022/07/06 10:00:57;;;;;;;2.83;1.20;;;;;;;;;;6207471;28;20237;-83
2022/07/06 10:04:20;;;;;;;1.83;0.90;;;;;;;;;;6204312;28;20567;-84
2022/07/06 10:07:41;;;;;;;2.50;2.05;;;;;;;;;;6202818;28;20229;-82
2022/07/06 10:11:02;;;;;;;1.10;1.00;;;;;;;;;;6202521;28;20225;-82
2022/07/06 10:14:23;;;;;;;2.17;1.38;;;;;;;;;;6200583;28;20233;-79
2022/07/06 10:17:45;;;;;;;3.50;1.52;;;;;;;;;;6198374;28;20316;-82
2022/07/06 10:21:07;;;;;;;3.45;1.20;;;;;;;;;;6204316;28;20221;-81
2022/07/06 10:24:28;;;;;;;2.00;1.38;;;;;;;;;;6220537;28;20493;-82
2022/07/06 10:27:49;;;;;;;1.38;1.27;;;;;;;;;;6216268;28;20229;-81
2022/07/06 10:31:10;;;;;;;2.25;0.90;;;;;;;;;;6208797;28;20218;-81
2022/07/06 10:34:31;;;;;;;3.00;0.80;;;;;;;;;;6212491;28;20237;-81
2022/07/06 10:38:05;;;;;;;1.83;0.93;;;;;;;;;;6201437;28;20225;-83
2022/07/06 10:41:32;;;;;;;3.08;0.70;;;;;;;;;;6210159;28;20591;-81
2022/07/06 10:44:53;;;;;;;3.42;1.08;;;;;;;;;;6222347;28;20229;-82
2022/07/06 10:48:17;;;;;;;2.88;0.90;;;;;;;;;;6214873;28;20416;-82
2022/07/06 10:51:42;;;;;;;1.67;1.10;;;;;;;;;;6210885;28;20233;-82
2022/07/06 10:55:05;;;;;;;2.25;1.02;;;;;;;;;;6205835;28;20233;-82
2022/07/06 10:58:40;;;;;;;2.33;0.95;;;;;;;;;;6187937;28;20496;-81
2022/07/06 11:02:13;;;;;;;2.55;1.17;;;;;;;;;;6207024;28;20234;-77
2022/07/06 11:05:41;;;;;;;3.95;1.65;;;;;;;;;;6200999;28;20488;-76
2022/07/06 11:09:02;;;;;;;2.40;1.38;;;;;;;;;;6218364;28;20297;-83
2022/07/06 11:12:24;;;;;;;3.03;1.42;;;;;;;;;;6223111;28;20228;-79
2022/07/06 11:15:49;;;;;;;3.53;1.20;;;;;;;;;;6228074;28;20241;-80
2022/07/06 11:19:10;;;;;;;2.45;1.02;;;;;;;;;;6224308;28;20300;-78
2022/07/06 11:22:31;;;;;;;3.83;1.27;;;;;;;;;;6222784;28;20245;-81
2022/07/06 11:25:51;;;;;;;1.70;0.70;;;;;;;;;;6221417;28;20229;-77
2022/07/06 11:29:14;;;;;;;2.53;1.17;;;;;;;;;;6200925;28;20240;-84
2022/07/06 11:32:38;;;;;;;2.03;1.23;;;;;;;;;;6204443;28;20639;-86
2022/07/06 11:36:12;;;;;;;2.35;1.02;;;;;;;;;;6203607;28;20595;-77
2022/07/06 11:39:33;;;;;;;3.15;1.52;;;;;;;;;;6199141;28;20233;-77
2022/07/06 11:42:54;;;;;;;2.70;1.00;;;;;;;;;;6200790;28;20232;-80
2022/07/06 11:46:28;;;;;;;3.08;0.98;;;;;;;;;;6198880;28;20237;-86
2022/07/06 11:49:51;;;;;;;4.35;1.35;;;;;;;;;;6196994;28;20270;-83
2022/07/06 11:53:15;;;;;;;4.93;1.08;;;;;;;;;;6187209;28;20233;-75
2022/07/06 11:56:35;;;;;;;3.03;1.20;;;;;;;;;;6203722;28;20686;-78
2022/07/06 12:00:00;;;;;;;1.00;0.68;;;;;;;;;;6195873;28;20634;-85
2022/07/06 12:03:23;;;;;;;1.67;0.55;;;;;;;;;;6192731;28;20238;-79
2022/07/06 12:06:44;;;;;;;3.25;0.90;;;;;;;;;;6187207;28;20234;-77
2022/07/06 12:10:05;;;;;;;4.15;1.20;;;;;;;;;;6190673;28;20225;-78
2022/07/06 12:13:26;;;;;;;3.47;1.00;;;;;;;;;;6195930;28;20611;-79
2022/07/06 12:16:47;;;;;;;1.83;1.17;;;;;;;;;;6199713;28;20256;-84
2022/07/06 12:20:10;;;;;;;2.20;0.90;;;;;;;;;;6191426;28;20238;-85
2022/07/06 12:23:38;;;;;;;1.00;0.73;;;;;;;;;;6190541;28;20236;-70
2022/07/06 12:27:01;;;;;;;5.63;0.85;;;;;;;;;;6188735;28;20240;-77
2022/07/06 12:30:22;;;;;;;2.38;0.60;;;;;;;;;;6191834;28;20245;-80
2022/07/06 12:33:56;;;;;;;2.47;0.80;;;;;;;;;;6195037;28;21436;-78
2022/07/06 12:37:20;;;;;;;3.03;1.15;;;;;;;;;;6194454;28;20575;-77
2022/07/06 12:40:40;;;;;;;4.47;1.52;;;;;;;;;;6192044;28;20311;-81
2022/07/06 12:44:02;;;;;;;2.45;1.05;;;;;;;;;;6195185;28;20230;-79
2022/07/06 12:47:23;;;;;;;1.33;0.57;;;;;;;;;;6190164;28;20494;-77
2022/07/06 12:50:44;;;;;;;1.48;0.60;;;;;;;;;;6191382;28;20351;-80
2022/07/06 12:54:15;;;;;;;0.52;0.47;;;;;;;;;;6194150;28;20237;-82
2022/07/06 12:57:43;;;;;;;2.10;0.77;;;;;;;;;;6197737;28;20233;-82
2022/07/06 13:01:04;;;;;;;3.25;1.50;;;;;;;;;;6193953;28;20325;-68
2022/07/06 13:04:26;;;;;;;1.63;0.75;;;;;;;;;;6185323;28;20757;-75
2022/07/06 13:07:48;;;;;;;1.77;0.75;;;;;;;;;;6183018;28;20324;-78
2022/07/06 13:11:10;;;;;;;2.10;0.77;;;;;;;;;;6194593;28;20726;-77
2022/07/06 13:14:30;;;;;;;1.75;0.80;;;;;;;;;;6195439;28;20237;-78
2022/07/06 13:17:51;;;;;;;1.58;0.55;;;;;;;;;;6208243;28;20241;-75
2022/07/06 13:21:12;;;;;;;1.52;0.90;;;;;;;;;;6192452;28;20226;-81
2022/07/06 13:24:33;;;;;;;1.38;0.80;;;;;;;;;;6192577;28;20292;-77
2022/07/06 13:27:55;;;;;;;4.88;1.35;;;;;;;;;;6190067;28;20264;-81
2022/07/06 13:31:15;;;;;;;3.88;0.93;;;;;;;;;;6206058;28;20225;-77
2022/07/06 13:34:36;;;;;;;7.68;2.28;;;;;;;;;;6189139;28;20244;-73
2022/07/06 13:37:57;;;;;;;2.08;0.80;;;;;;;;;;6190413;28;20233;-69
2022/07/06 13:41:18;;;;;;;1.10;0.60;;;;;;;;;;6183333;28;20257;-69
2022/07/06 13:44:40;;;;;;;2.30;0.80;;;;;;;;;;6189296;28;20232;-76
2022/07/06 13:48:01;;;;;;;1.30;0.75;;;;;;;;;;6185180;28;20233;-74
2022/07/06 13:51:21;;;;;;;0.55;0.43;;;;;;;;;;6184457;28;20351;-80
2022/07/06 13:54:42;;;;;;;1.98;0.60;;;;;;;;;;6188697;28;20225;-77
2022/07/06 13:58:04;;;;;;;1.42;0.57;;;;;;;;;;6180473;28;20229;-78
2022/07/06 14:01:26;;;;;;;2.17;0.77;;;;;;;;;;6191876;28;20229;-82
2022/07/06 14:04:46;;;;;;;1.08;0.60;;;;;;;;;;6198082;28;20617;-78
2022/07/06 14:08:06;;;;;;;1.73;0.98;;;;;;;;;;6197504;28;20319;-77
2022/07/06 14:11:27;;;;;;;2.13;0.57;;;;;;;;;;6169865;28;20910;-75
2022/07/06 14:14:48;;;;;;;1.17;0.60;;;;;;;;;;6186706;28;20255;-72
2022/07/06 14:18:10;;;;;;;1.52;0.60;;;;;;;;;;6186783;28;20233;-76
2022/07/06 14:21:30;;;;;;;1.15;0.80;;;;;;;;;;6190524;28;20221;-78
2022/07/06 14:24:51;;;;;;;1.83;0.77;;;;;;;;;;6186179;28;20233;-71
2022/07/06 14:28:13;;;;;;;1.73;0.68;;;;;;;;;;6192620;28;20229;-72
2022/07/06 14:31:33;;;;;;;2.58;0.70;;;;;;;;;;6196608;28;20241;-72
2022/07/06 14:34:55;;;;;;;2.67;1.17;;;;;;;;;;6204794;28;20233;-73
2022/07/06 14:38:16;;;;;;;0.50;0.47;;;;;;;;;;6205699;28;20237;-72
2022/07/06 14:41:37;;;;;;;1.55;0.60;;;;;;;;;;6205427;28;20229;-71
2022/07/06 14:44:57;;;;;;;3.45;1.02;;;;;;;;;;6206417;28;20598;-72
2022/07/06 14:48:18;;;;;;;2.60;0.80;;;;;;;;;;6201604;28;20229;-73
2022/07/06 14:51:39;;;;;;;5.60;1.48;;;;;;;;;;6202525;28;20224;-72
2022/07/06 14:55:00;;;;;;;5.47;0.60;;;;;;;;;;6201581;28;20249;-72
2022/07/06 14:58:22;;;;;;;2.28;0.70;;;;;;;;;;6200246;28;20587;-72
2022/07/06 15:01:43;;;;;;;2.53;0.80;;;;;;;;;;6204020;28;20226;-72
2022/07/06 15:05:04;;;;;;;3.42;0.90;;;;;;;;;;6208877;28;20332;-72
2022/07/06 15:08:26;;;;;;;1.17;0.60;;;;;;;;;;6201704;28;20253;-72
2022/07/06 15:11:46;;;;;;;2.38;0.55;;;;;;;;;;6208587;28;20225;-72
2022/07/06 15:15:07;;;;;;;1.02;0.43;;;;;;;;;;6207051;28;20685;-72
2022/07/06 15:18:28;;;;;;;0.40;0.30;;;;;;;;;;6199042;28;20311;-73
2022/07/06 15:21:48;;;;;;;2.72;0.57;;;;;;;;;;6201781;28;20543;-72
2022/07/06 15:25:11;;;;;;;3.03;1.10;;;;;;;;;;6204798;28;20828;-73
2022/07/06 15:28:31;;;;;;;1.92;0.85;;;;;;;;;;6207794;28;20267;-71
2022/07/06 15:31:52;;;;;;;1.88;0.82;;;;;;;;;;6204930;28;20229;-73
2022/07/06 15:35:13;;;;;;;4.63;1.23;;;;;;;;;;6195060;28;20233;-72
2022/07/06 15:38:34;;;;;;;2.83;0.90;;;;;;;;;;6196918;28;20267;-72
2022/07/06 15:41:56;;;;;;;2.20;1.00;;;;;;;;;;6205172;28;20225;-73
2022/07/06 15:45:17;;;;;;;1.83;0.90;;;;;;;;;;6199616;28;20241;-71
2022/07/06 15:48:38;;;;;;;3.13;1.08;;;;;;;;;;6202364;28;20603;-71
2022/07/06 15:51:59;;;;;;;3.60;1.00;;;;;;;;;;6205833;28;20225;-70
2022/07/06 15:55:21;;;;;;;2.90;0.95;;;;;;;;;;6206982;28;20225;-72
2022/07/06 15:58:43;;;;;;;3.35;0.82;;;;;;;;;;6203383;28;20328;-72
2022/07/06 16:02:04;;;;;;;1.55;0.95;;;;;;;;;;6197775;28;20281;-72
2022/07/06 16:05:24;;;;;;;1.98;1.40;;;;;;;;;;6194207;28;20233;-73
2022/07/06 16:08:45;;;;;;;1.98;1.15;;;;;;;;;;6196977;28;20428;-72
2022/07/06 16:12:08;;;;;;;1.67;1.00;;;;;;;;;;6183387;28;20229;-72
2022/07/06 16:15:30;;;;;;;1.42;0.95;;;;;;;;;;6189000;28;20619;-73
2022/07/06 16:18:50;;;;;;;4.13;2.28;;;;;;;;;;6192545;28;20256;-72
2022/07/06 16:22:10;;;;;;;2.35;1.05;;;;;;;;;;6193511;28;20238;-73
2022/07/06 16:25:31;;;;;;;2.22;1.35;;;;;;;;;;6195742;28;20796;-73
2022/07/06 16:28:52;;;;;;;8.05;1.10;;;;;;;;;;6189922;28;20225;-73
2022/07/06 16:32:14;;;;;;;3.28;1.17;;;;;;;;;;6187900;28;20262;-73
2022/07/06 16:35:35;;;;;;;3.30;0.70;;;;;;;;;;6190467;28;20225;-73
2022/07/06 16:38:55;;;;;;;4.25;1.17;;;;;;;;;;6190265;28;20496;-73
2022/07/06 16:42:17;;;;;;;2.70;1.35;;;;;;;;;;6191099;28;20237;-84
2022/07/06 16:45:37;;;;;;;143.77;134.05;;;;;;;;;;6176442;28;20355;-80
2022/07/06 16:49:00;;;;;;;496.25;456.02;;;;;;;;;;6185360;28;20233;-76
2022/07/06 16:52:20;;;;;;;869.90;783.42;;;;;;;;;;6182958;28;20241;-75
2022/07/06 16:55:41;;;;;;;381.88;342.88;;;;;;;;;;6192544;28;20352;-76
2022/07/06 16:59:02;;;;;;;56.33;51.83;;;;;;;;;;6184195;28;20233;-76
2022/07/06 17:02:23;;;;;;;4.03;3.15;;;;;;;;;;6184945;28;20228;-75
2022/07/06 17:05:44;;;;;;;2.35;1.40;;;;;;;;;;6183937;28;20325;-76
2022/07/06 17:09:05;;;;;;;4.38;1.67;;;;;;;;;;6188160;28;20234;-75
2022/07/06 17:12:28;;;;;;;2.90;2.45;;;;;;;;;;6184317;28;20602;-75
2022/07/06 17:15:49;;;;;;;4.05;1.98;;;;;;;;;;6180429;28;20238;-76
2022/07/06 17:19:09;;;;;;;1.85;1.25;;;;;;;;;;6183166;28;20335;-74
2022/07/06 17:22:32;;;;;;;2.47;1.08;;;;;;;;;;6187150;28;20272;-76
2022/07/06 17:25:56;;;;;;;1.90;1.20;;;;;;;;;;6179865;28;21932;-75
2022/07/06 17:29:17;;;;;;;1.80;1.05;;;;;;;;;;6189527;28;20305;-75
2022/07/06 17:32:38;;;;;;;4.85;2.17;;;;;;;;;;6204494;28;20767;-74
2022/07/06 17:36:00;;;;;;;1.38;1.17;;;;;;;;;;6199848;28;20232;-74
2022/07/06 17:39:21;;;;;;;2.40;1.88;;;;;;;;;;6195251;28;20232;-76
2022/07/06 17:42:43;;;;;;;3.38;1.15;;;;;;;;;;6194395;28;20625;-74
2022/07/06 17:46:04;;;;;;;6.18;1.65;;;;;;;;;;6190346;28;20602;-75
2022/07/06 17:49:25;;;;;;;2.28;1.58;;;;;;;;;;6193126;28;20234;-75
2022/07/06 17:52:45;;;;;;;5.55;1.33;;;;;;;;;;6203615;28;20233;-76
2022/07/06 17:56:07;;;;;;;1.52;1.17;;;;;;;;;;6203974;28;20790;-74
2022/07/06 17:59:28;;;;;;;2.40;1.27;;;;;;;;;;6186395;28;20229;-75
2022/07/06 18:02:49;;;;;;;2.83;1.52;;;;;;;;;;6200220;28;20320;-76
2022/07/06 18:06:10;;;;;;;2.13;1.42;;;;;;;;;;6204846;28;20236;-75
2022/07/06 18:09:30;;;;;;;4.57;1.02;;;;;;;;;;6186398;28;20312;-75
2022/07/06 18:12:53;;;;;;;2.63;1.45;;;;;;;;;;6205262;28;20229;-75
2022/07/06 18:16:14;;;;;;;2.53;1.33;;;;;;;;;;6201889;28;23122;-76
2022/07/06 18:19:35;;;;;;;3.05;1.20;;;;;;;;;;6193684;28;20288;-78
2022/07/06 18:22:56;;;;;;;2.50;0.93;;;;;;;;;;6184737;28;20234;-77
2022/07/06 18:26:16;;;;;;;3.13;1.13;;;;;;;;;;6189427;28;20262;-76
2022/07/06 18:29:38;;;;;;;4.55;1.25;;;;;;;;;;6180489;28;20248;-75
2022/07/06 18:32:59;;;;;;;2.55;1.55;;;;;;;;;;6212341;28;20248;-74
2022/07/06 18:36:19;;;;;;;3.25;1.98;;;;;;;;;;6203109;28;20468;-74
2022/07/06 18:39:40;;;;;;;8.30;5.10;;;;;;;;;;6203634;28;20288;-77
2022/07/06 18:43:01;;;;;;;5.00;2.55;;;;;;;;;;6204919;28;20233;-75
2022/07/06 18:46:23;;;;;;;3.72;1.75;;;;;;;;;;6198771;28;20233;-73
2022/07/06 18:49:44;;;;;;;4.80;1.60;;;;;;;;;;6193430;28;21008;-75
2022/07/06 18:53:04;;;;;;;3.38;1.30;;;;;;;;;;6199972;28;20320;-74
2022/07/06 18:56:25;;;;;;;2.72;1.55;;;;;;;;;;6198217;28;20588;-74
2022/07/06 18:59:46;;;;;;;4.97;2.90;;;;;;;;;;6200033;28;20256;-75
2022/07/06 19:03:08;;;;;;;2.70;1.83;;;;;;;;;;6197201;28;20244;-74
2022/07/06 19:06:28;;;;;;;6.38;4.85;;;;;;;;;;6195073;28;20252;-73
2022/07/06 19:09:49;;;;;;;2.60;1.80;;;;;;;;;;6204374;28;20233;-75
2022/07/06 19:13:10;;;;;;;2.95;1.70;;;;;;;;;;6199070;28;20221;-76
2022/07/06 19:16:31;;;;;;;1.98;1.33;;;;;;;;;;6199308;28;20259;-74
2022/07/06 19:19:53;;;;;;;3.30;1.50;;;;;;;;;;6198386;28;20229;-76
2022/07/06 19:23:14;;;;;;;1.70;1.10;;;;;;;;;;6210580;28;20614;-75
2022/07/06 19:26:34;;;;;;;3.65;1.40;;;;;;;;;;6196174;28;20229;-75
2022/07/06 19:29:55;;;;;;;6.30;1.50;;;;;;;;;;6195542;28;20225;-75
2022/07/06 19:33:17;;;;;;;5.55;1.83;;;;;;;;;;6200636;28;20297;-77
2022/07/06 19:36:41;;;;;;;1.80;1.67;;;;;;;;;;6205954;28;20505;-76
2022/07/06 19:40:02;;;;;;;4.25;2.10;;;;;;;;;;6199024;28;20328;-75
2022/07/06 19:43:23;;;;;;;5.38;1.50;;;;;;;;;;6200202;28;20233;-74
2022/07/06 19:46:44;;;;;;;4.97;1.52;;;;;;;;;;6202314;28;20741;-76
2022/07/06 19:50:05;;;;;;;3.05;1.75;;;;;;;;;;6204235;28;20229;-76
2022/07/06 19:53:30;;;;;;;2.70;1.42;;;;;;;;;;6207492;28;20225;-76
2022/07/06 19:56:50;;;;;;;3.63;1.83;;;;;;;;;;6201044;28;20813;-73
2022/07/06 20:00:11;;;;;;;1.77;1.60;;;;;;;;;;6202602;28;20229;-75
2022/07/06 20:03:31;;;;;;;5.32;1.73;;;;;;;;;;6203919;28;20560;-74
2022/07/06 20:06:52;;;;;;;3.65;1.70;;;;;;;;;;6201444;28;20244;-75
2022/07/06 20:10:15;;;;;;;2.65;2.00;;;;;;;;;;6201244;28;20233;-75
2022/07/06 20:13:35;;;;;;;3.38;2.40;;;;;;;;;;6200034;28;20689;-75